sensor_id;sensor_type;location;lat;lon;timestamp;pressure;altitude;pressure_sealevel;temperature;humidity
54994;BME280;40891;47.242;8.648;2022-09-13T00:01:37;96023.09;;;17.11;78.71
54994;BME280;40891;47.242;8.648;2022-09-13T00:04:02;96025.41;;;17.18;79.15
54994;BME280;40891;47.242;8.648;2022-09-13T00:06:28;96020.09;;;17.26;78.79
54994;BME280;40891;47.242;8.648;2022-09-13T00:08:54;96015.75;;;17.25;80.10
54994;BME280;40891;47.242;8.648;2022-09-13T00:11:25;96017.78;;;17.24;80.61
54994;BME280;40891;47.242;8.648;2022-09-13T00:13:51;96018.31;;;17.28;80.85
54994;BME280;40891;47.242;8.648;2022-09-13T00:16:19;96025.69;;;17.20;82.07
54994;BME280;40891;47.242;8.648;2022-09-13T00:18:45;96017.00;;;17.18;82.50
54994;BME280;40891;47.242;8.648;2022-09-13T00:21:12;96013.94;;;17.16;82.33
54994;BME280;40891;47.242;8.648;2022-09-13T00:23:39;96024.59;;;17.01;83.74
54994;BME280;40891;47.242;8.648;2022-09-13T00:26:12;96025.34;;;16.96;84.61
54994;BME280;40891;47.242;8.648;2022-09-13T00:28:38;96016.66;;;16.94;84.64
54994;BME280;40891;47.242;8.648;2022-09-13T00:31:06;96011.81;;;17.00;84.15
54994;BME280;40891;47.242;8.648;2022-09-13T00:33:32;96017.13;;;16.87;84.64
54994;BME280;40891;47.242;8.648;2022-09-13T00:36:02;96018.63;;;16.82;84.72
54994;BME280;40891;47.242;8.648;2022-09-13T00:38:28;96023.97;;;16.80;84.68
54994;BME280;40891;47.242;8.648;2022-09-13T00:40:53;96026.03;;;16.80;85.35
54994;BME280;40891;47.242;8.648;2022-09-13T00:43:36;96018.88;;;16.79;85.04
54994;BME280;40891;47.242;8.648;2022-09-13T00:46:04;96021.47;;;16.88;84.52
54994;BME280;40891;47.242;8.648;2022-09-13T00:48:30;96022.75;;;16.92;84.41
54994;BME280;40891;47.242;8.648;2022-09-13T00:50:57;96025.31;;;16.90;84.83
54994;BME280;40891;47.242;8.648;2022-09-13T00:53:26;96029.38;;;16.84;84.24
54994;BME280;40891;47.242;8.648;2022-09-13T00:56:07;96017.31;;;16.78;84.01
54994;BME280;40891;47.242;8.648;2022-09-13T00:58:47;96021.72;;;16.84;82.90
54994;BME280;40891;47.242;8.648;2022-09-13T01:01:15;96022.44;;;16.79;82.74
54994;BME280;40891;47.242;8.648;2022-09-13T01:03:44;96019.09;;;16.75;82.94
54994;BME280;40891;47.242;8.648;2022-09-13T01:06:19;96024.44;;;16.73;82.67
54994;BME280;40891;47.242;8.648;2022-09-13T01:08:48;96019.38;;;16.77;81.07
54994;BME280;40891;47.242;8.648;2022-09-13T01:11:30;96020.88;;;16.73;81.21
54994;BME280;40891;47.242;8.648;2022-09-13T01:13:58;96020.81;;;16.62;81.85
54994;BME280;40891;47.242;8.648;2022-09-13T01:16:24;96013.38;;;16.53;82.19
54994;BME280;40891;47.242;8.648;2022-09-13T01:18:50;96013.31;;;16.48;82.42
54994;BME280;40891;47.242;8.648;2022-09-13T01:21:40;96014.81;;;16.43;83.18
54994;BME280;40891;47.242;8.648;2022-09-13T01:24:21;96015.03;;;16.40;82.92
54994;BME280;40891;47.242;8.648;2022-09-13T01:27:10;96009.28;;;16.54;83.25
54994;BME280;40891;47.242;8.648;2022-09-13T01:32:17;96019.91;;;16.45;85.42
54994;BME280;40891;47.242;8.648;2022-09-13T01:34:58;96016.38;;;16.50;86.41
54994;BME280;40891;47.242;8.648;2022-09-13T01:40:33;96026.81;;;16.44;87.95
54994;BME280;40891;47.242;8.648;2022-09-13T01:45:38;96031.94;;;16.51;87.58
54994;BME280;40891;47.242;8.648;2022-09-13T01:51:35;96032.50;;;16.55;86.49
54994;BME280;40891;47.242;8.648;2022-09-13T01:56:59;96027.88;;;16.52;86.75
54994;BME280;40891;47.242;8.648;2022-09-13T01:59:44;96038.81;;;16.50;87.24
54994;BME280;40891;47.242;8.648;2022-09-13T02:04:40;96026.41;;;16.56;86.52
54994;BME280;40891;47.242;8.648;2022-09-13T02:07:12;96028.44;;;16.56;86.10
54994;BME280;40891;47.242;8.648;2022-09-13T02:09:45;96040.56;;;16.42;87.40
54994;BME280;40891;47.242;8.648;2022-09-13T02:12:22;96036.63;;;16.28;87.77
54994;BME280;40891;47.242;8.648;2022-09-13T02:14:59;96034.84;;;16.30;88.18
54994;BME280;40891;47.242;8.648;2022-09-13T02:17:31;96045.34;;;16.30;87.57
54994;BME280;40891;47.242;8.648;2022-09-13T02:20:06;96041.16;;;16.20;88.38
54994;BME280;40891;47.242;8.648;2022-09-13T02:22:38;96048.59;;;16.23;87.88
54994;BME280;40891;47.242;8.648;2022-09-13T02:25:09;96040.94;;;16.23;87.48
54994;BME280;40891;47.242;8.648;2022-09-13T02:27:37;96028.97;;;16.23;87.52
54994;BME280;40891;47.242;8.648;2022-09-13T02:30:09;96048.00;;;16.13;87.93
54994;BME280;40891;47.242;8.648;2022-09-13T02:32:47;96039.31;;;16.11;87.73
54994;BME280;40891;47.242;8.648;2022-09-13T02:35:19;96034.47;;;16.12;87.09
54994;BME280;40891;47.242;8.648;2022-09-13T02:37:50;96047.44;;;16.09;86.12
54994;BME280;40891;47.242;8.648;2022-09-13T02:40:24;96038.28;;;16.09;85.75
54994;BME280;40891;47.242;8.648;2022-09-13T02:42:55;96039.84;;;16.15;85.31
54994;BME280;40891;47.242;8.648;2022-09-13T02:45:31;96044.16;;;16.11;85.29
54994;BME280;40891;47.242;8.648;2022-09-13T02:48:03;96040.84;;;16.12;85.02
54994;BME280;40891;47.242;8.648;2022-09-13T02:53:13;96035.25;;;16.12;84.08
54994;BME280;40891;47.242;8.648;2022-09-13T02:55:54;96034.19;;;16.10;84.91
54994;BME280;40891;47.242;8.648;2022-09-13T02:58:34;96035.25;;;16.12;84.95
54994;BME280;40891;47.242;8.648;2022-09-13T03:01:02;96036.50;;;16.11;84.99
54994;BME280;40891;47.242;8.648;2022-09-13T03:03:27;96040.59;;;16.10;85.21
54994;BME280;40891;47.242;8.648;2022-09-13T03:05:53;96028.38;;;16.13;84.42
54994;BME280;40891;47.242;8.648;2022-09-13T03:08:19;96026.81;;;16.12;84.43
54994;BME280;40891;47.242;8.648;2022-09-13T03:14:19;96019.22;;;16.18;84.37
54994;BME280;40891;47.242;8.648;2022-09-13T03:22:13;96024.56;;;16.16;85.31
54994;BME280;40891;47.242;8.648;2022-09-13T03:30:10;96028.19;;;16.59;83.45
54994;BME280;40891;47.242;8.648;2022-09-13T03:35:36;96030.13;;;16.48;84.37
54994;BME280;40891;47.242;8.648;2022-09-13T03:41:28;96026.91;;;16.55;82.93
54994;BME280;40891;47.242;8.648;2022-09-13T03:43:40;96019.25;;;16.55;82.97
54994;BME280;40891;47.242;8.648;2022-09-13T03:46:11;96026.63;;;16.53;83.15
54994;BME280;40891;47.242;8.648;2022-09-13T03:48:40;96029.28;;;16.67;83.02
54994;BME280;40891;47.242;8.648;2022-09-13T03:51:07;96029.94;;;16.51;83.58
54994;BME280;40891;47.242;8.648;2022-09-13T03:53:38;96027.25;;;16.73;85.25
54994;BME280;40891;47.242;8.648;2022-09-13T03:56:16;96026.44;;;16.62;85.42
54994;BME280;40891;47.242;8.648;2022-09-13T03:58:42;96032.41;;;16.80;84.19
54994;BME280;40891;47.242;8.648;2022-09-13T04:01:08;96032.38;;;16.75;83.71
54994;BME280;40891;47.242;8.648;2022-09-13T04:03:35;96023.13;;;16.63;84.03
54994;BME280;40891;47.242;8.648;2022-09-13T04:06:01;96030.84;;;16.74;84.32
54994;BME280;40891;47.242;8.648;2022-09-13T04:08:26;96035.84;;;16.59;84.88
54994;BME280;40891;47.242;8.648;2022-09-13T04:10:51;96042.97;;;16.54;86.08
54994;BME280;40891;47.242;8.648;2022-09-13T04:13:16;96033.94;;;16.45;86.94
54994;BME280;40891;47.242;8.648;2022-09-13T04:15:42;96032.91;;;16.42;86.56
54994;BME280;40891;47.242;8.648;2022-09-13T04:18:08;96028.78;;;16.38;86.89
54994;BME280;40891;47.242;8.648;2022-09-13T04:20:33;96034.66;;;16.34;87.17
54994;BME280;40891;47.242;8.648;2022-09-13T04:23:00;96034.84;;;16.30;86.93
54994;BME280;40891;47.242;8.648;2022-09-13T04:25:25;96038.69;;;16.33;87.55
54994;BME280;40891;47.242;8.648;2022-09-13T04:27:55;96034.19;;;16.41;87.52
54994;BME280;40891;47.242;8.648;2022-09-13T04:30:21;96037.97;;;16.32;87.48
54994;BME280;40891;47.242;8.648;2022-09-13T04:32:47;96036.63;;;16.28;88.32
54994;BME280;40891;47.242;8.648;2022-09-13T04:35:12;96038.41;;;16.25;88.72
54994;BME280;40891;47.242;8.648;2022-09-13T04:37:39;96040.44;;;16.25;89.38
54994;BME280;40891;47.242;8.648;2022-09-13T04:40:05;96039.41;;;16.22;89.19
54994;BME280;40891;47.242;8.648;2022-09-13T04:42:32;96032.56;;;16.29;89.14
54994;BME280;40891;47.242;8.648;2022-09-13T04:44:57;96041.25;;;16.31;89.34
54994;BME280;40891;47.242;8.648;2022-09-13T04:47:23;96038.63;;;16.22;88.83
54994;BME280;40891;47.242;8.648;2022-09-13T04:49:48;96038.84;;;16.18;89.60
54994;BME280;40891;47.242;8.648;2022-09-13T04:52:13;96044.47;;;16.18;90.16
54994;BME280;40891;47.242;8.648;2022-09-13T04:54:39;96041.63;;;16.13;90.29
54994;BME280;40891;47.242;8.648;2022-09-13T04:57:04;96049.53;;;16.14;89.65
54994;BME280;40891;47.242;8.648;2022-09-13T04:59:30;96036.34;;;16.20;88.78
54994;BME280;40891;47.242;8.648;2022-09-13T05:01:56;96034.31;;;16.26;88.06
54994;BME280;40891;47.242;8.648;2022-09-13T05:04:21;96041.44;;;16.22;88.17
54994;BME280;40891;47.242;8.648;2022-09-13T05:06:46;96045.00;;;16.22;88.05
54994;BME280;40891;47.242;8.648;2022-09-13T05:09:13;96046.84;;;16.31;87.14
54994;BME280;40891;47.242;8.648;2022-09-13T05:11:40;96047.94;;;16.39;86.62
54994;BME280;40891;47.242;8.648;2022-09-13T05:14:05;96059.31;;;16.56;85.91
54994;BME280;40891;47.242;8.648;2022-09-13T05:16:31;96058.16;;;16.42;86.38
54994;BME280;40891;47.242;8.648;2022-09-13T05:18:58;96054.34;;;16.40;85.66
54994;BME280;40891;47.242;8.648;2022-09-13T05:21:24;96055.94;;;16.52;84.80
54994;BME280;40891;47.242;8.648;2022-09-13T05:23:51;96063.03;;;16.47;84.95
54994;BME280;40891;47.242;8.648;2022-09-13T05:26:18;96054.09;;;16.43;85.53
54994;BME280;40891;47.242;8.648;2022-09-13T05:28:43;96049.25;;;16.44;85.45
54994;BME280;40891;47.242;8.648;2022-09-13T05:31:19;96056.16;;;16.48;85.59
54994;BME280;40891;47.242;8.648;2022-09-13T05:33:46;96056.06;;;16.63;84.16
54994;BME280;40891;47.242;8.648;2022-09-13T05:36:13;96057.09;;;16.71;84.04
54994;BME280;40891;47.242;8.648;2022-09-13T05:38:38;96061.47;;;16.72;83.93
54994;BME280;40891;47.242;8.648;2022-09-13T05:41:04;96058.22;;;16.84;83.32
54994;BME280;40891;47.242;8.648;2022-09-13T05:43:32;96056.16;;;16.85;83.82
54994;BME280;40891;47.242;8.648;2022-09-13T05:46:10;96049.81;;;16.90;83.37
54994;BME280;40891;47.242;8.648;2022-09-13T05:48:36;96047.25;;;16.92;82.97
54994;BME280;40891;47.242;8.648;2022-09-13T05:51:09;96046.06;;;17.04;81.96
54994;BME280;40891;47.242;8.648;2022-09-13T05:53:36;96038.94;;;17.14;81.46
54994;BME280;40891;47.242;8.648;2022-09-13T05:56:04;96038.50;;;17.27;81.71
54994;BME280;40891;47.242;8.648;2022-09-13T05:58:30;96039.03;;;17.42;80.91
54994;BME280;40891;47.242;8.648;2022-09-13T06:00:56;96043.69;;;17.50;79.98
54994;BME280;40891;47.242;8.648;2022-09-13T06:03:22;96039.63;;;17.51;79.81
54994;BME280;40891;47.242;8.648;2022-09-13T06:05:48;96037.34;;;17.55;80.22
54994;BME280;40891;47.242;8.648;2022-09-13T06:08:13;96030.72;;;17.64;80.04
54994;BME280;40891;47.242;8.648;2022-09-13T06:10:39;96028.94;;;17.78;78.76
54994;BME280;40891;47.242;8.648;2022-09-13T06:13:04;96027.41;;;17.82;76.92
54994;BME280;40891;47.242;8.648;2022-09-13T06:15:29;96034.06;;;17.85;77.39
54994;BME280;40891;47.242;8.648;2022-09-13T06:17:55;96023.84;;;17.98;76.72
54994;BME280;40891;47.242;8.648;2022-09-13T06:20:20;96022.84;;;18.07;75.79
54994;BME280;40891;47.242;8.648;2022-09-13T06:22:48;96020.25;;;18.20;75.29
54994;BME280;40891;47.242;8.648;2022-09-13T06:25:14;96016.19;;;18.21;75.76
54994;BME280;40891;47.242;8.648;2022-09-13T06:27:40;96011.06;;;18.19;75.58
54994;BME280;40891;47.242;8.648;2022-09-13T06:30:06;96009.78;;;18.26;75.14
54994;BME280;40891;47.242;8.648;2022-09-13T06:32:33;96002.59;;;18.30;75.36
54994;BME280;40891;47.242;8.648;2022-09-13T06:34:59;95997.00;;;18.36;75.57
54994;BME280;40891;47.242;8.648;2022-09-13T06:37:24;95983.94;;;18.27;76.99
54994;BME280;40891;47.242;8.648;2022-09-13T06:39:50;96001.34;;;18.26;77.26
54994;BME280;40891;47.242;8.648;2022-09-13T06:42:15;95993.66;;;18.32;75.96
54994;BME280;40891;47.242;8.648;2022-09-13T06:44:40;95996.19;;;18.41;74.95
54994;BME280;40891;47.242;8.648;2022-09-13T06:47:06;96000.56;;;18.53;74.67
54994;BME280;40891;47.242;8.648;2022-09-13T06:49:31;96003.38;;;18.53;73.14
54994;BME280;40891;47.242;8.648;2022-09-13T06:51:56;95989.81;;;18.57;73.57
54994;BME280;40891;47.242;8.648;2022-09-13T06:54:22;96000.28;;;18.62;71.87
54994;BME280;40891;47.242;8.648;2022-09-13T06:56:47;95988.72;;;18.82;71.41
54994;BME280;40891;47.242;8.648;2022-09-13T06:59:12;95990.50;;;18.85;71.29
54994;BME280;40891;47.242;8.648;2022-09-13T07:01:40;95992.00;;;18.86;70.33
54994;BME280;40891;47.242;8.648;2022-09-13T07:04:17;95989.97;;;18.87;69.78
54994;BME280;40891;47.242;8.648;2022-09-13T07:06:47;95988.47;;;18.80;71.62
54994;BME280;40891;47.242;8.648;2022-09-13T07:09:17;95987.16;;;18.87;71.44
54994;BME280;40891;47.242;8.648;2022-09-13T07:11:44;95987.16;;;18.87;72.60
54994;BME280;40891;47.242;8.648;2022-09-13T07:14:15;95992.00;;;18.97;72.43
54994;BME280;40891;47.242;8.648;2022-09-13T07:16:41;95978.56;;;19.15;72.94
54994;BME280;40891;47.242;8.648;2022-09-13T07:19:12;95975.22;;;19.22;72.46
54994;BME280;40891;47.242;8.648;2022-09-13T07:21:37;95971.28;;;19.47;68.99
54994;BME280;40891;47.242;8.648;2022-09-13T07:24:03;95975.63;;;19.48;67.67
54994;BME280;40891;47.242;8.648;2022-09-13T07:26:28;95969.94;;;19.53;68.29
54994;BME280;40891;47.242;8.648;2022-09-13T07:28:58;95964.72;;;19.68;66.71
54994;BME280;40891;47.242;8.648;2022-09-13T07:31:25;95962.84;;;19.77;66.71
54994;BME280;40891;47.242;8.648;2022-09-13T07:33:56;95949.66;;;19.90;65.69
54994;BME280;40891;47.242;8.648;2022-09-13T07:36:23;95946.19;;;20.08;65.23
54994;BME280;40891;47.242;8.648;2022-09-13T07:38:48;95939.00;;;20.07;66.06
54994;BME280;40891;47.242;8.648;2022-09-13T07:41:17;95949.44;;;20.18;66.65
54994;BME280;40891;47.242;8.648;2022-09-13T07:43:43;95947.59;;;20.26;64.43
54994;BME280;40891;47.242;8.648;2022-09-13T07:46:23;95951.66;;;20.30;63.42
54994;BME280;40891;47.242;8.648;2022-09-13T07:48:51;95954.38;;;20.42;63.01
54994;BME280;40891;47.242;8.648;2022-09-13T07:51:22;95951.84;;;20.38;61.42
54994;BME280;40891;47.242;8.648;2022-09-13T07:53:50;95963.91;;;20.39;62.15
54994;BME280;40891;47.242;8.648;2022-09-13T07:56:21;95956.25;;;20.58;60.12
54994;BME280;40891;47.242;8.648;2022-09-13T07:58:48;95954.44;;;20.60;61.76
54994;BME280;40891;47.242;8.648;2022-09-13T08:01:16;95963.03;;;20.73;62.63
54994;BME280;40891;47.242;8.648;2022-09-13T08:03:43;95967.44;;;20.93;63.57
54994;BME280;40891;47.242;8.648;2022-09-13T08:06:09;95964.47;;;21.04;60.16
54994;BME280;40891;47.242;8.648;2022-09-13T08:08:35;95964.72;;;21.06;61.53
54994;BME280;40891;47.242;8.648;2022-09-13T08:11:03;95965.66;;;21.14;60.99
54994;BME280;40891;47.242;8.648;2022-09-13T08:13:29;95966.34;;;21.20;58.09
54994;BME280;40891;47.242;8.648;2022-09-13T08:16:00;95977.91;;;21.22;58.97
54994;BME280;40891;47.242;8.648;2022-09-13T08:18:25;95980.81;;;21.35;58.95
54994;BME280;40891;47.242;8.648;2022-09-13T08:20:50;95969.72;;;21.56;59.17
54994;BME280;40891;47.242;8.648;2022-09-13T08:23:19;95959.91;;;21.76;58.04
54994;BME280;40891;47.242;8.648;2022-09-13T08:25:45;95963.66;;;22.02;54.89
54994;BME280;40891;47.242;8.648;2022-09-13T08:28:15;95959.44;;;22.22;55.21
54994;BME280;40891;47.242;8.648;2022-09-13T08:30:41;95950.97;;;22.35;55.73
54994;BME280;40891;47.242;8.648;2022-09-13T08:33:08;95952.09;;;22.58;54.42
54994;BME280;40891;47.242;8.648;2022-09-13T08:35:34;95946.56;;;22.79;54.15
54994;BME280;40891;47.242;8.648;2022-09-13T08:37:59;95950.72;;;22.91;53.04
54994;BME280;40891;47.242;8.648;2022-09-13T08:40:31;95955.19;;;23.26;52.44
54994;BME280;40891;47.242;8.648;2022-09-13T08:45:29;95948.00;;;23.72;52.74
54994;BME280;40891;47.242;8.648;2022-09-13T08:48:02;95950.94;;;24.00;49.06
54994;BME280;40891;47.242;8.648;2022-09-13T08:50:32;95945.59;;;23.96;50.05
54994;BME280;40891;47.242;8.648;2022-09-13T09:01:06;95940.19;;;25.24;49.22
54994;BME280;40891;47.242;8.648;2022-09-13T09:03:41;95941.34;;;25.80;48.41
54994;BME280;40891;47.242;8.648;2022-09-13T09:06:13;95929.09;;;26.15;45.73
54994;BME280;40891;47.242;8.648;2022-09-13T09:09:03;95939.00;;;26.29;47.32
54994;BME280;40891;47.242;8.648;2022-09-13T09:16:54;95934.34;;;27.24;47.09
54994;BME280;40891;47.242;8.648;2022-09-13T09:19:26;95923.63;;;27.47;46.37
54994;BME280;40891;47.242;8.648;2022-09-13T09:21:54;95927.09;;;27.78;45.52
54994;BME280;40891;47.242;8.648;2022-09-13T09:24:24;95915.00;;;28.02;44.57
54994;BME280;40891;47.242;8.648;2022-09-13T09:26:52;95915.81;;;28.45;44.29
54994;BME280;40891;47.242;8.648;2022-09-13T09:29:20;95911.47;;;28.85;42.12
54994;BME280;40891;47.242;8.648;2022-09-13T09:32:09;95902.34;;;29.38;41.36
54994;BME280;40891;47.242;8.648;2022-09-13T09:37:38;95899.56;;;31.77;35.75
54994;BME280;40891;47.242;8.648;2022-09-13T09:40:08;95892.72;;;32.82;32.42
54994;BME280;40891;47.242;8.648;2022-09-13T09:42:45;95892.75;;;34.11;29.98
54994;BME280;40891;47.242;8.648;2022-09-13T09:45:34;95893.53;;;34.23;29.10
54994;BME280;40891;47.242;8.648;2022-09-13T09:48:07;95900.34;;;35.20;29.04
54994;BME280;40891;47.242;8.648;2022-09-13T09:50:40;95888.03;;;35.93;28.71
54994;BME280;40891;47.242;8.648;2022-09-13T09:53:15;95886.16;;;36.11;27.76
54994;BME280;40891;47.242;8.648;2022-09-13T09:55:49;95885.66;;;35.16;28.93
54994;BME280;40891;47.242;8.648;2022-09-13T09:58:35;95894.31;;;35.05;29.78
54994;BME280;40891;47.242;8.648;2022-09-13T10:01:01;95890.16;;;35.93;28.02
54994;BME280;40891;47.242;8.648;2022-09-13T10:03:28;95887.00;;;37.05;26.18
54994;BME280;40891;47.242;8.648;2022-09-13T10:06:08;95883.75;;;36.85;27.14
54994;BME280;40891;47.242;8.648;2022-09-13T10:08:37;95884.75;;;37.60;26.88
54994;BME280;40891;47.242;8.648;2022-09-13T10:11:05;95881.03;;;37.58;27.69
54994;BME280;40891;47.242;8.648;2022-09-13T10:13:31;95881.00;;;38.45;24.77
54994;BME280;40891;47.242;8.648;2022-09-13T10:18:26;95871.91;;;39.00;23.67
54994;BME280;40891;47.242;8.648;2022-09-13T10:21:01;95869.44;;;39.43;24.04
54994;BME280;40891;47.242;8.648;2022-09-13T10:23:28;95871.03;;;40.15;22.34
54994;BME280;40891;47.242;8.648;2022-09-13T10:25:57;95869.09;;;41.35;20.89
54994;BME280;40891;47.242;8.648;2022-09-13T10:28:25;95872.72;;;41.33;20.87
54994;BME280;40891;47.242;8.648;2022-09-13T10:30:54;95874.13;;;42.17;20.52
54994;BME280;40891;47.242;8.648;2022-09-13T10:36:00;95870.13;;;41.44;21.41
54994;BME280;40891;47.242;8.648;2022-09-13T10:38:35;95864.28;;;41.44;20.54
54994;BME280;40891;47.242;8.648;2022-09-13T10:41:05;95853.56;;;42.37;20.09
54994;BME280;40891;47.242;8.648;2022-09-13T10:43:32;95856.75;;;41.78;19.16
54994;BME280;40891;47.242;8.648;2022-09-13T10:45:59;95859.00;;;41.18;20.58
54994;BME280;40891;47.242;8.648;2022-09-13T10:48:28;95853.78;;;40.95;19.97
54994;BME280;40891;47.242;8.648;2022-09-13T10:53:42;95857.47;;;39.35;23.26
54994;BME280;40891;47.242;8.648;2022-09-13T10:56:26;95840.97;;;38.75;22.80
54994;BME280;40891;47.242;8.648;2022-09-13T11:02:03;95839.94;;;38.37;25.07
54994;BME280;40891;47.242;8.648;2022-09-13T11:07:34;95827.00;;;39.05;24.23
54994;BME280;40891;47.242;8.648;2022-09-13T11:13:36;95819.63;;;39.02;25.63
54994;BME280;40891;47.242;8.648;2022-09-13T11:22:03;95803.75;;;39.91;23.79
54994;BME280;40891;47.242;8.648;2022-09-13T11:30:18;95784.84;;;41.06;22.96
54994;BME280;40891;47.242;8.648;2022-09-13T11:37:51;95789.63;;;38.82;25.36
54994;BME280;40891;47.242;8.648;2022-09-13T11:43:18;95777.66;;;38.58;26.54
54994;BME280;40891;47.242;8.648;2022-09-13T11:48:32;95775.22;;;39.34;24.95
54994;BME280;40891;47.242;8.648;2022-09-13T11:51:11;95770.78;;;40.61;23.66
54994;BME280;40891;47.242;8.648;2022-09-13T11:56:43;95773.53;;;38.63;24.91
54994;BME280;40891;47.242;8.648;2022-09-13T11:59:34;95769.84;;;38.62;25.26
54994;BME280;40891;47.242;8.648;2022-09-13T12:02:12;95768.13;;;38.89;24.63
54994;BME280;40891;47.242;8.648;2022-09-13T12:04:56;95774.47;;;39.34;24.99
54994;BME280;40891;47.242;8.648;2022-09-13T12:07:35;95765.06;;;39.71;23.79
54994;BME280;40891;47.242;8.648;2022-09-13T12:10:08;95766.16;;;40.54;22.92
54994;BME280;40891;47.242;8.648;2022-09-13T12:12:38;95760.19;;;40.69;23.44
54994;BME280;40891;47.242;8.648;2022-09-13T12:15:37;95761.75;;;42.00;19.96
54994;BME280;40891;47.242;8.648;2022-09-13T12:20:37;95755.75;;;41.29;22.46
54994;BME280;40891;47.242;8.648;2022-09-13T12:23:10;95755.38;;;40.58;21.65
54994;BME280;40891;47.242;8.648;2022-09-13T12:25:49;95754.31;;;39.93;25.14
54994;BME280;40891;47.242;8.648;2022-09-13T12:28:23;95749.44;;;39.27;23.41
54994;BME280;40891;47.242;8.648;2022-09-13T12:30:55;95743.06;;;38.48;24.80
54994;BME280;40891;47.242;8.648;2022-09-13T12:33:22;95735.09;;;38.17;26.64
54994;BME280;40891;47.242;8.648;2022-09-13T12:36:04;95737.00;;;38.11;26.02
54994;BME280;40891;47.242;8.648;2022-09-13T12:50:10;95725.19;;;33.74;34.51
54994;BME280;40891;47.242;8.648;2022-09-13T12:55:22;95720.97;;;32.77;36.88
54994;BME280;40891;47.242;8.648;2022-09-13T12:58:02;95714.09;;;33.03;35.44
54994;BME280;40891;47.242;8.648;2022-09-13T13:00:33;95712.56;;;33.46;34.37
54994;BME280;40891;47.242;8.648;2022-09-13T13:05:45;95706.66;;;33.44;35.14
54994;BME280;40891;47.242;8.648;2022-09-13T13:11:07;95711.38;;;33.96;33.98
54994;BME280;40891;47.242;8.648;2022-09-13T13:13:39;95712.72;;;34.41;33.61
54994;BME280;40891;47.242;8.648;2022-09-13T13:16:27;95695.78;;;36.12;29.11
54994;BME280;40891;47.242;8.648;2022-09-13T13:18:55;95697.88;;;37.52;28.86
54994;BME280;40891;47.242;8.648;2022-09-13T13:23:47;95699.16;;;38.73;24.65
54994;BME280;40891;47.242;8.648;2022-09-13T13:29:27;95696.38;;;36.92;28.02
54994;BME280;40891;47.242;8.648;2022-09-13T13:36:49;95708.63;;;35.18;29.24
54994;BME280;40891;47.242;8.648;2022-09-13T13:42:10;95708.91;;;33.46;32.99
54994;BME280;40891;47.242;8.648;2022-09-13T13:57:51;95706.91;;;32.71;34.48
54994;BME280;40891;47.242;8.648;2022-09-13T14:00:29;95699.72;;;32.61;34.86
54994;BME280;40891;47.242;8.648;2022-09-13T14:03:37;95690.56;;;32.53;36.10
54994;BME280;40891;47.242;8.648;2022-09-13T14:06:05;95690.81;;;32.89;34.95
54994;BME280;40891;47.242;8.648;2022-09-13T14:20:11;95673.25;;;37.68;24.64
54994;BME280;40891;47.242;8.648;2022-09-13T14:22:37;95667.16;;;37.78;25.37
54994;BME280;40891;47.242;8.648;2022-09-13T14:25:21;95670.63;;;36.71;26.47
54994;BME280;40891;47.242;8.648;2022-09-13T14:27:47;95670.78;;;35.78;29.43
54994;BME280;40891;47.242;8.648;2022-09-13T14:30:31;95661.06;;;34.96;31.31
54994;BME280;40891;47.242;8.648;2022-09-13T14:32:59;95668.34;;;33.88;32.70
54994;BME280;40891;47.242;8.648;2022-09-13T14:35:38;95658.53;;;33.35;33.41
54994;BME280;40891;47.242;8.648;2022-09-13T14:38:21;95653.38;;;32.89;34.38
54994;BME280;40891;47.242;8.648;2022-09-13T14:41:12;95655.28;;;32.64;34.90
54994;BME280;40891;47.242;8.648;2022-09-13T14:43:39;95656.00;;;32.53;36.40
54994;BME280;40891;47.242;8.648;2022-09-13T14:46:16;95649.69;;;32.23;35.31
54994;BME280;40891;47.242;8.648;2022-09-13T14:48:48;95644.63;;;32.12;37.73
54994;BME280;40891;47.242;8.648;2022-09-13T14:51:18;95646.50;;;32.62;36.52
54994;BME280;40891;47.242;8.648;2022-09-13T14:53:47;95644.22;;;32.81;36.16
54994;BME280;40891;47.242;8.648;2022-09-13T14:58:54;95651.38;;;32.92;35.62
54994;BME280;40891;47.242;8.648;2022-09-13T15:01:46;95646.72;;;32.87;35.05
54994;BME280;40891;47.242;8.648;2022-09-13T15:04:12;95650.94;;;33.07;35.82
54994;BME280;40891;47.242;8.648;2022-09-13T15:06:39;95642.66;;;32.69;36.75
54994;BME280;40891;47.242;8.648;2022-09-13T15:12:02;95642.84;;;31.77;38.78
54994;BME280;40891;47.242;8.648;2022-09-13T15:19:37;95659.06;;;31.32;41.77
54994;BME280;40891;47.242;8.648;2022-09-13T15:22:10;95662.16;;;31.15;39.82
54994;BME280;40891;47.242;8.648;2022-09-13T15:24:42;95664.00;;;31.01;41.55
54994;BME280;40891;47.242;8.648;2022-09-13T15:27:25;95656.91;;;30.82;45.92
54994;BME280;40891;47.242;8.648;2022-09-13T15:29:57;95643.50;;;30.56;44.62
54994;BME280;40891;47.242;8.648;2022-09-13T15:32:40;95641.78;;;30.15;44.87
54994;BME280;40891;47.242;8.648;2022-09-13T15:35:25;95648.94;;;29.68;46.69
54994;BME280;40891;47.242;8.648;2022-09-13T15:38:54;95646.97;;;29.25;47.09
54994;BME280;40891;47.242;8.648;2022-09-13T15:40:45;95640.69;;;29.09;48.02
54994;BME280;40891;47.242;8.648;2022-09-13T15:43:11;95635.63;;;28.90;46.46
54994;BME280;40891;47.242;8.648;2022-09-13T15:45:37;95634.03;;;28.53;48.60
54994;BME280;40891;47.242;8.648;2022-09-13T15:48:03;95634.50;;;28.15;47.68
54994;BME280;40891;47.242;8.648;2022-09-13T15:50:31;95644.38;;;27.97;47.90
54994;BME280;40891;47.242;8.648;2022-09-13T15:52:58;95639.75;;;27.85;49.60
54994;BME280;40891;47.242;8.648;2022-09-13T15:55:25;95642.50;;;27.75;51.19
54994;BME280;40891;47.242;8.648;2022-09-13T15:57:51;95644.94;;;27.79;51.93
54994;BME280;40891;47.242;8.648;2022-09-13T16:00:20;95644.06;;;27.68;50.11
54994;BME280;40891;47.242;8.648;2022-09-13T16:02:46;95645.66;;;27.62;51.31
54994;BME280;40891;47.242;8.648;2022-09-13T16:05:12;95640.56;;;27.60;52.71
54994;BME280;40891;47.242;8.648;2022-09-13T16:07:38;95634.09;;;27.77;51.26
54994;BME280;40891;47.242;8.648;2022-09-13T16:10:19;95624.91;;;27.61;52.16